createdAt,value
2023-02-25T00:00:38.070Z,99906.50
2023-02-25T00:03:05.931Z,99897.69
2023-02-25T00:05:33.759Z,99898.38
2023-02-25T00:08:01.546Z,99902.56
2023-02-25T00:10:29.209Z,99910.22
2023-02-25T00:13:12.160Z,99908.47
2023-02-25T00:15:44.905Z,99904.13
2023-02-25T00:18:12.556Z,99910.06
2023-02-25T00:20:41.014Z,99910.78
2023-02-25T00:23:08.662Z,99920.16
2023-02-25T00:25:36.384Z,99915.81
2023-02-25T00:28:06.401Z,99912.44
2023-02-25T00:30:34.173Z,99913.22
2023-02-25T00:33:02.137Z,99913.16
2023-02-25T00:35:29.888Z,99915.75
2023-02-25T00:38:13.682Z,99914.00
2023-02-25T00:40:43.467Z,99923.25
2023-02-25T00:43:12.626Z,99918.97
2023-02-25T00:45:40.770Z,99925.63
2023-02-25T00:48:08.519Z,99920.56
2023-02-25T00:50:36.582Z,99927.34
2023-02-25T00:53:04.308Z,99931.56
2023-02-25T00:55:33.649Z,99936.00
2023-02-25T00:58:02.107Z,99929.13
2023-02-25T01:00:35.881Z,99934.25
2023-02-25T01:03:08.363Z,99939.41
2023-02-25T01:05:41.287Z,99938.63
2023-02-25T01:08:08.984Z,99939.53
2023-02-25T01:10:36.712Z,99942.84
2023-02-25T01:13:04.912Z,99941.19
2023-02-25T01:15:33.944Z,99949.75
2023-02-25T01:18:01.675Z,99953.22
2023-02-25T01:20:29.954Z,99955.78
2023-02-25T01:22:57.745Z,99959.19
2023-02-25T01:25:25.971Z,99955.03
2023-02-25T01:27:55.811Z,99961.84
2023-02-25T01:30:23.791Z,99956.69
2023-02-25T01:32:52.891Z,99958.34
2023-02-25T01:35:20.630Z,99966.91
2023-02-25T01:37:49.909Z,99959.25
2023-02-25T01:40:18.107Z,99969.56
2023-02-25T01:42:46.253Z,99967.81
2023-02-25T01:45:25.439Z,99972.00
2023-02-25T01:47:56.836Z,99975.47
2023-02-25T01:50:26.415Z,99980.56
2023-02-25T01:52:55.049Z,99981.50
2023-02-25T01:55:22.763Z,99980.56
2023-02-25T01:57:50.712Z,99974.56
2023-02-25T02:00:18.758Z,99981.38
2023-02-25T02:02:47.835Z,99978.03
2023-02-25T02:05:17.266Z,99987.56
2023-02-25T02:07:44.930Z,99991.78
2023-02-25T02:10:12.767Z,99991.91
2023-02-25T02:12:43.185Z,99998.88
2023-02-25T02:15:13.018Z,99992.03
2023-02-25T02:17:43.873Z,100002.31
2023-02-25T02:20:20.554Z,100002.38
2023-02-25T02:22:55.318Z,100001.56
2023-02-25T02:25:51.545Z,99991.28
2023-02-25T02:28:37.309Z,99994.94
2023-02-25T02:31:18.558Z,100000.25
2023-02-25T02:33:50.029Z,100004.66
2023-02-25T02:36:20.620Z,99992.66
2023-02-25T02:38:51.421Z,99992.84
2023-02-25T02:41:21.925Z,99990.34
2023-02-25T02:43:53.626Z,99999.88
2023-02-25T02:46:24.986Z,99997.31
2023-02-25T02:48:56.284Z,100003.31
2023-02-25T02:51:25.896Z,100004.22
2023-02-25T02:53:55.587Z,100008.53
2023-02-25T02:56:25.033Z,99993.22
2023-02-25T02:58:54.612Z,99989.84
2023-02-25T03:01:27.273Z,99993.28
2023-02-25T03:03:59.942Z,100001.00
2023-02-25T03:06:30.915Z,100001.97
2023-02-25T03:09:03.530Z,100000.31
2023-02-25T03:11:31.350Z,100004.53
2023-02-25T03:13:59.092Z,100005.38
2023-02-25T03:16:30.976Z,100014.81
2023-02-25T03:19:00.574Z,100013.97
2023-02-25T03:21:33.302Z,100021.69
2023-02-25T03:24:02.512Z,100019.13
2023-02-25T03:26:33.407Z,100013.09
2023-02-25T03:29:01.178Z,100018.31
2023-02-25T03:31:31.424Z,100021.75
2023-02-25T03:34:00.761Z,100017.63
2023-02-25T03:36:31.348Z,100022.91
2023-02-25T03:39:00.584Z,100042.03
2023-02-25T03:41:31.555Z,100031.88
2023-02-25T03:44:00.306Z,100034.44
2023-02-25T03:46:28.779Z,100047.34
2023-02-25T03:48:58.821Z,100045.75
2023-02-25T03:51:29.281Z,100051.00
2023-02-25T03:53:57.432Z,100050.09
2023-02-25T03:56:25.397Z,100060.47
2023-02-25T03:58:53.332Z,100065.63
2023-02-25T04:01:24.242Z,100085.38
2023-02-25T04:03:51.946Z,100078.59
2023-02-25T04:06:24.194Z,100076.06
2023-02-25T04:08:52.239Z,100082.22
2023-02-25T04:11:20.049Z,100083.09
2023-02-25T04:13:47.751Z,100081.44
2023-02-25T04:16:15.451Z,100082.28
2023-02-25T04:18:43.244Z,100082.41
2023-02-25T04:21:11.467Z,100094.22
2023-02-25T04:23:40.513Z,100090.75
2023-02-25T04:26:08.148Z,100094.16
2023-02-25T04:28:35.747Z,100096.84
2023-02-25T04:31:03.505Z,100105.34
2023-02-25T04:33:31.512Z,100112.16
2023-02-25T04:35:59.204Z,100111.25
2023-02-25T04:38:26.936Z,100118.94
2023-02-25T04:40:55.960Z,100116.31
2023-02-25T04:43:23.680Z,100112.03
2023-02-25T04:45:51.368Z,100118.78
2023-02-25T04:48:24.333Z,100123.03
2023-02-25T04:50:53.020Z,100108.56
2023-02-25T04:53:20.808Z,100118.84
2023-02-25T04:55:48.532Z,100133.38
2023-02-25T04:58:17.567Z,100133.38
2023-02-25T05:00:48.496Z,100122.38
2023-02-25T05:03:16.249Z,100124.94
2023-02-25T05:05:43.935Z,100131.03
2023-02-25T05:08:11.561Z,100138.84
2023-02-25T05:10:39.270Z,100139.72
2023-02-25T05:13:06.985Z,100143.97
2023-02-25T05:15:36.084Z,100148.38
2023-02-25T05:18:03.768Z,100148.38
2023-02-25T05:20:31.530Z,100151.84
2023-02-25T05:22:59.227Z,100153.63
2023-02-25T05:25:26.918Z,100153.63
2023-02-25T05:27:54.531Z,100160.50
2023-02-25T05:30:22.302Z,100168.13
2023-02-25T05:32:51.476Z,100166.47
2023-02-25T05:35:20.086Z,100171.78
2023-02-25T05:37:47.756Z,100172.78
2023-02-25T05:40:15.720Z,100188.19
2023-02-25T05:42:43.397Z,100186.53
2023-02-25T05:45:11.523Z,100188.25
2023-02-25T05:47:39.246Z,100189.97
2023-02-25T05:50:08.893Z,100191.72
2023-02-25T05:52:36.574Z,100191.81
2023-02-25T05:55:04.605Z,100202.91
2023-02-25T05:57:32.311Z,100195.19
2023-02-25T05:59:59.924Z,100213.19
2023-02-25T06:02:27.716Z,100208.94
2023-02-25T06:04:55.444Z,100208.16
2023-02-25T06:07:24.576Z,100215.78
2023-02-25T06:09:52.253Z,100220.22
2023-02-25T06:12:19.857Z,100221.19
2023-02-25T06:14:47.476Z,100219.69
2023-02-25T06:17:15.207Z,100236.75
2023-02-25T06:19:42.919Z,100247.00
2023-02-25T06:22:10.546Z,100247.91
2023-02-25T06:24:40.703Z,100255.78
2023-02-25T06:27:08.357Z,100257.50
2023-02-25T06:29:36.073Z,100263.56
2023-02-25T06:32:03.897Z,100265.34
2023-02-25T06:34:33.375Z,100264.66
2023-02-25T06:37:01.947Z,100262.88
2023-02-25T06:39:29.728Z,100260.50
2023-02-25T06:41:58.791Z,100259.72
2023-02-25T06:44:27.118Z,100265.69
2023-02-25T06:46:56.011Z,100272.56
2023-02-25T06:49:23.896Z,100272.56
2023-02-25T06:51:51.658Z,100288.72
2023-02-25T06:54:19.819Z,100284.50
2023-02-25T06:56:47.640Z,100298.13
2023-02-25T06:59:16.677Z,100292.09
2023-02-25T07:01:44.396Z,100300.69
2023-02-25T07:04:15.555Z,100300.69
2023-02-25T07:06:43.390Z,100304.06
2023-02-25T07:09:11.054Z,100310.00
2023-02-25T07:11:38.773Z,100311.63
2023-02-25T07:14:07.212Z,100318.38
2023-02-25T07:16:36.290Z,100321.75
2023-02-25T07:19:04.189Z,100327.66
2023-02-25T07:21:31.886Z,100326.75
2023-02-25T07:23:59.670Z,100323.31
2023-02-25T07:26:28.589Z,100331.69
2023-02-25T07:28:57.159Z,100328.25
2023-02-25T07:31:26.153Z,100333.34
2023-02-25T07:33:56.901Z,100334.22
2023-02-25T07:36:27.250Z,100330.03
2023-02-25T07:38:54.909Z,100333.38
2023-02-25T07:41:23.345Z,100341.13
2023-02-25T07:43:51.278Z,100340.19
2023-02-25T07:46:18.989Z,100340.13
2023-02-25T07:48:46.736Z,100343.41
2023-02-25T07:51:18.548Z,100341.56
2023-02-25T07:53:46.580Z,100343.28
2023-02-25T07:56:14.560Z,100352.59
2023-02-25T07:58:42.531Z,100349.31
2023-02-25T08:01:10.739Z,100358.69
2023-02-25T08:03:38.972Z,100359.59
2023-02-25T08:06:08.685Z,100364.69
2023-02-25T08:08:37.962Z,100381.88
2023-02-25T08:11:06.304Z,100384.53
2023-02-25T08:13:35.204Z,100380.13
2023-02-25T08:16:05.227Z,100395.50
2023-02-25T08:18:32.895Z,100403.09
2023-02-25T08:21:02.761Z,100392.78
2023-02-25T08:23:30.797Z,100402.97
2023-02-25T08:26:00.478Z,100401.97
2023-02-25T08:28:34.301Z,100408.00
2023-02-25T08:31:04.236Z,100414.66
2023-02-25T08:33:32.282Z,100427.50
2023-02-25T08:36:06.892Z,100417.94
2023-02-25T08:38:34.518Z,100426.41
2023-02-25T08:41:03.634Z,100428.00
2023-02-25T08:43:32.122Z,100435.69
2023-02-25T08:46:01.279Z,100444.34
2023-02-25T08:48:29.162Z,100448.56
2023-02-25T08:50:56.880Z,100447.81
2023-02-25T08:53:24.611Z,100446.94
2023-02-25T08:55:56.409Z,100443.47
2023-02-25T08:58:25.511Z,100448.47
2023-02-25T09:00:55.243Z,100463.88
2023-02-25T09:03:23.109Z,100463.88
2023-02-25T09:05:52.049Z,100468.13
2023-02-25T09:08:20.066Z,100468.13
2023-02-25T09:10:50.673Z,100473.25
2023-02-25T09:13:18.651Z,100480.09
2023-02-25T09:15:47.697Z,100476.75
2023-02-25T09:18:15.302Z,100482.78
2023-02-25T09:20:43.014Z,100498.22
2023-02-25T09:23:11.246Z,100497.44
2023-02-25T09:25:39.784Z,100499.16
2023-02-25T09:28:08.170Z,100504.25
2023-02-25T09:30:35.913Z,100519.66
2023-02-25T09:33:05.430Z,100515.50
2023-02-25T09:35:33.338Z,100518.84
2023-02-25T09:38:00.996Z,100522.31
2023-02-25T09:40:28.717Z,100534.34
2023-02-25T09:43:06.419Z,100535.22
2023-02-25T09:45:35.014Z,100538.72
2023-02-25T09:48:04.614Z,100531.16
2023-02-25T09:50:38.235Z,100533.06
2023-02-25T09:53:08.589Z,100545.88
2023-02-25T09:55:40.335Z,100547.63
2023-02-25T09:58:09.945Z,100547.63
2023-02-25T10:00:41.513Z,100556.22
2023-02-25T10:03:13.816Z,100562.16
2023-02-25T10:05:48.239Z,100564.59
2023-02-25T10:08:20.958Z,100566.22
2023-02-25T10:10:52.511Z,100563.56
2023-02-25T10:13:25.367Z,100560.84
2023-02-25T10:15:57.012Z,100573.66
2023-02-25T10:18:31.768Z,100567.56
2023-02-25T10:21:07.742Z,100566.63
2023-02-25T10:23:42.433Z,100568.28
2023-02-25T10:26:15.489Z,100573.38
2023-02-25T10:28:44.853Z,100575.03
2023-02-25T10:31:15.597Z,100576.53
2023-02-25T10:33:45.901Z,100586.72
2023-02-25T10:36:17.899Z,100588.47
2023-02-25T10:38:46.822Z,100582.53
2023-02-25T10:41:14.942Z,100589.25
2023-02-25T10:43:43.271Z,100598.91
2023-02-25T10:46:14.307Z,100599.63
2023-02-25T10:48:43.328Z,100599.56
2023-02-25T10:51:12.240Z,100605.38
2023-02-25T10:53:41.720Z,100603.50
2023-02-25T10:56:10.895Z,100607.00
2023-02-25T10:58:40.838Z,100613.72
2023-02-25T11:01:13.714Z,100624.63
2023-02-25T11:03:54.949Z,100626.25
2023-02-25T11:06:26.901Z,100626.16
2023-02-25T11:08:58.637Z,100633.88
2023-02-25T11:11:29.682Z,100624.50
2023-02-25T11:14:03.710Z,100632.03
2023-02-25T11:16:32.595Z,100641.41
2023-02-25T11:19:02.019Z,100639.66
2023-02-25T11:21:31.541Z,100631.78
2023-02-25T11:24:03.191Z,100643.78
2023-02-25T11:26:32.950Z,100655.66
2023-02-25T11:29:01.699Z,100658.50
2023-02-25T11:31:33.344Z,100663.47
2023-02-25T11:34:03.407Z,100662.59
2023-02-25T11:36:31.788Z,100663.28
2023-02-25T11:39:08.797Z,100685.56
2023-02-25T11:41:36.519Z,100670.84
2023-02-25T11:44:34.219Z,100681.25
2023-02-25T11:47:07.301Z,100687.28
2023-02-25T11:49:44.654Z,100688.91
2023-02-25T11:52:15.812Z,100699.16
2023-02-25T11:54:50.818Z,100701.00
2023-02-25T11:57:24.526Z,100703.63
2023-02-25T11:59:58.897Z,100707.81
2023-02-25T12:02:31.969Z,100704.34
2023-02-25T12:05:09.031Z,100705.19
2023-02-25T12:08:11.881Z,100707.59
2023-02-25T12:10:53.326Z,100712.59
2023-02-25T12:13:39.323Z,100709.94
2023-02-25T12:16:25.100Z,100703.94
2023-02-25T12:19:05.261Z,100704.16
2023-02-25T12:21:54.860Z,100722.06
2023-02-25T12:24:30.339Z,100716.13
2023-02-25T12:27:09.580Z,100729.75
2023-02-25T12:29:56.973Z,100729.75
2023-02-25T12:32:37.198Z,100735.59
2023-02-25T12:35:18.677Z,100732.03
2023-02-25T12:37:57.214Z,100736.28
2023-02-25T12:40:31.382Z,100735.56
2023-02-25T12:43:07.997Z,100749.19
2023-02-25T12:45:42.883Z,100738.22
2023-02-25T12:48:27.611Z,100756.31
2023-02-25T12:51:10.563Z,100768.47
2023-02-25T12:53:45.321Z,100761.47
2023-02-25T12:56:26.015Z,100760.63
2023-02-25T12:59:07.424Z,100764.22
2023-02-25T13:01:44.040Z,100760.84
2023-02-25T13:04:24.401Z,100772.63
2023-02-25T13:07:14.559Z,100775.06
2023-02-25T13:09:57.990Z,100780.13
2023-02-25T13:12:37.179Z,100785.28
2023-02-25T13:15:10.936Z,100788.03
2023-02-25T13:18:03.836Z,100799.88
2023-02-25T13:20:41.156Z,100786.13
2023-02-25T13:23:26.598Z,100788.03
2023-02-25T13:25:59.805Z,100798.44
2023-02-25T13:28:36.318Z,100801.81
2023-02-25T13:31:08.457Z,100802.81
2023-02-25T13:33:46.401Z,100814.09
2023-02-25T13:36:26.364Z,100817.56
2023-02-25T13:39:04.148Z,100821.72
2023-02-25T13:41:37.194Z,100820.09
2023-02-25T13:44:28.686Z,100825.38
2023-02-25T13:47:13.940Z,100832.91
2023-02-25T13:49:58.776Z,100824.53
2023-02-25T13:52:31.796Z,100838.31
2023-02-25T13:55:17.361Z,100840.94
2023-02-25T13:57:57.658Z,100843.59
2023-02-25T14:00:38.428Z,100844.56
2023-02-25T14:03:16.664Z,100855.63
2023-02-25T14:06:00.474Z,100851.50
2023-02-25T14:08:37.205Z,100860.00
2023-02-25T14:11:24.110Z,100853.16
2023-02-25T14:14:10.027Z,100855.94
2023-02-25T14:16:52.413Z,100861.91
2023-02-25T14:19:31.220Z,100869.69
2023-02-25T14:22:20.098Z,100863.66
2023-02-25T14:24:51.460Z,100889.41
2023-02-25T14:27:26.154Z,100900.47
2023-02-25T14:30:01.039Z,100895.41
2023-02-25T14:32:37.841Z,100899.69
2023-02-25T14:35:16.748Z,100898.13
2023-02-25T14:37:49.969Z,100900.66
2023-02-25T14:40:27.244Z,100906.66
2023-02-25T14:43:02.158Z,100913.56
2023-02-25T14:45:33.625Z,100916.03
2023-02-25T14:48:03.170Z,100916.88
2023-02-25T14:50:32.769Z,100931.53
2023-02-25T14:53:25.768Z,100926.50
2023-02-25T14:56:05.400Z,100935.97
2023-02-25T14:58:51.063Z,100930.94
2023-02-25T15:01:27.365Z,100941.25
2023-02-25T15:04:11.907Z,100952.34
2023-02-25T15:06:51.707Z,100959.31
2023-02-25T15:09:25.890Z,100957.63
2023-02-25T15:12:10.668Z,100960.28
2023-02-25T15:14:54.020Z,100959.47
2023-02-25T15:17:38.417Z,100980.91
2023-02-25T15:20:26.670Z,100969.88
2023-02-25T15:22:59.649Z,100974.16
2023-02-25T15:25:38.571Z,100982.81
2023-02-25T15:28:34.537Z,100990.63
2023-02-25T15:31:07.260Z,100993.22
2023-02-25T15:33:35.894Z,100995.84
2023-02-25T15:36:20.214Z,101005.22
2023-02-25T15:38:48.899Z,101007.06
2023-02-25T15:41:38.694Z,101013.06
2023-02-25T15:44:21.520Z,101009.66
2023-02-25T15:46:51.362Z,101022.53
2023-02-25T15:49:23.969Z,101025.19
2023-02-25T15:51:52.878Z,101027.78
2023-02-25T15:54:39.375Z,101032.13
2023-02-25T15:57:32.073Z,101031.34
2023-02-25T15:59:59.738Z,101032.25
2023-02-25T16:02:42.313Z,101039.16
2023-02-25T16:05:21.670Z,101037.53
2023-02-25T16:07:51.216Z,101047.81
2023-02-25T16:10:25.495Z,101047.91
2023-02-25T16:12:55.392Z,101042.88
2023-02-25T16:15:27.066Z,101052.38
2023-02-25T16:17:57.617Z,101055.72
2023-02-25T16:20:27.273Z,101067.03
2023-02-25T16:22:57.525Z,101058.41
2023-02-25T16:25:31.185Z,101069.69
2023-02-25T16:28:04.564Z,101073.94
2023-02-25T16:30:37.777Z,101068.91
2023-02-25T16:33:10.384Z,101079.22
2023-02-25T16:35:40.923Z,101081.97
2023-02-25T16:38:12.894Z,101080.31
2023-02-25T16:40:44.669Z,101083.88
2023-02-25T16:43:13.712Z,101091.56
2023-02-25T16:45:43.349Z,101103.56
2023-02-25T16:48:17.002Z,101107.97
2023-02-25T16:50:47.341Z,101109.81
2023-02-25T16:53:19.322Z,101113.31
2023-02-25T16:55:47.060Z,101123.63
2023-02-25T16:58:21.423Z,101126.22
2023-02-25T17:00:53.911Z,101134.03
2023-02-25T17:03:23.787Z,101134.13
2023-02-25T17:06:05.481Z,101140.19
2023-02-25T17:08:33.688Z,101134.25
2023-02-25T17:11:02.591Z,101149.00
2023-02-25T17:13:33.130Z,101154.19
2023-02-25T17:16:03.835Z,101146.63
2023-02-25T17:18:33.931Z,101160.38
2023-02-25T17:21:03.232Z,101159.63
2023-02-25T17:23:31.353Z,101163.09
2023-02-25T17:25:59.615Z,101167.47
2023-02-25T17:28:29.186Z,101175.22
2023-02-25T17:31:05.058Z,101182.13
2023-02-25T17:33:34.645Z,101189.88
2023-02-25T17:36:10.025Z,101184.13
2023-02-25T17:38:39.222Z,101187.50
2023-02-25T17:41:07.101Z,101190.91
2023-02-25T17:43:35.541Z,101196.09
2023-02-25T17:46:05.007Z,101204.66
2023-02-25T17:48:38.006Z,101203.00
2023-02-25T17:51:07.819Z,101208.19
2023-02-25T17:53:40.214Z,101214.19
2023-02-25T17:56:17.109Z,101218.41
2023-02-25T17:58:45.053Z,101222.75
2023-02-25T18:01:23.943Z,101230.41
2023-02-25T18:03:53.963Z,101227.78
2023-02-25T18:06:45.706Z,101229.44
2023-02-25T18:09:29.348Z,101232.06
2023-02-25T18:11:58.956Z,101229.56
2023-02-25T18:14:29.185Z,101234.56
2023-02-25T18:16:56.975Z,101230.31
2023-02-25T18:19:28.728Z,101234.63
2023-02-25T18:21:56.537Z,101240.59
2023-02-25T18:24:24.971Z,101239.78
2023-02-25T18:27:16.845Z,101238.91
2023-02-25T18:29:44.460Z,101248.31
2023-02-25T18:32:12.919Z,101248.38
2023-02-25T18:34:42.269Z,101245.84
2023-02-25T18:37:12.297Z,101251.00
2023-02-25T18:39:39.981Z,101251.00
2023-02-25T18:42:07.657Z,101251.03
2023-02-25T18:44:35.389Z,101248.47
2023-02-25T18:47:03.007Z,101242.53
2023-02-25T18:49:30.674Z,101257.88
2023-02-25T18:51:59.736Z,101262.19
2023-02-25T18:54:27.338Z,101263.09
2023-02-25T18:56:55.073Z,101261.38
2023-02-25T18:59:22.744Z,101271.56
2023-02-25T19:01:50.596Z,101274.16
2023-02-25T19:04:19.662Z,101268.22
2023-02-25T19:06:47.432Z,101276.78
2023-02-25T19:09:16.556Z,101281.88
2023-02-25T19:11:44.249Z,101288.69
2023-02-25T19:14:16.973Z,101280.25
2023-02-25T19:16:44.706Z,101282.84
2023-02-25T19:19:14.113Z,101281.09
2023-02-25T19:21:42.278Z,101288.75
2023-02-25T19:24:12.724Z,101288.81
2023-02-25T19:26:41.814Z,101291.41
2023-02-25T19:29:09.477Z,101294.84
2023-02-25T19:31:37.284Z,101294.84
2023-02-25T19:34:04.996Z,101299.13
2023-02-25T19:36:32.671Z,101302.53
2023-02-25T19:39:00.390Z,101299.16
2023-02-25T19:41:28.008Z,101303.44
2023-02-25T19:43:57.076Z,101309.44
2023-02-25T19:46:25.027Z,101309.41
2023-02-25T19:48:52.964Z,101322.25
2023-02-25T19:51:21.066Z,101316.28
2023-02-25T19:53:48.705Z,101317.97
2023-02-25T19:56:16.851Z,101321.38
2023-02-25T19:58:44.530Z,101322.25
2023-02-25T20:01:13.719Z,101323.09
2023-02-25T20:03:41.589Z,101325.66
2023-02-25T20:06:12.917Z,101330.75
2023-02-25T20:08:41.117Z,101329.94
2023-02-25T20:11:09.166Z,101328.22
2023-02-25T20:13:38.489Z,101332.50
2023-02-25T20:16:06.762Z,101331.66
2023-02-25T20:18:35.914Z,101343.56
2023-02-25T20:21:04.165Z,101345.34
2023-02-25T20:23:31.833Z,101347.06
2023-02-25T20:26:03.733Z,101344.50
2023-02-25T20:28:31.489Z,101353.88
2023-02-25T20:31:03.808Z,101350.50
2023-02-25T20:33:31.527Z,101353.91
2023-02-25T20:36:01.179Z,101357.31
2023-02-25T20:38:32.590Z,101353.06
2023-02-25T20:41:00.313Z,101354.75
2023-02-25T20:43:28.066Z,101353.06
2023-02-25T20:45:56.067Z,101359.06
2023-02-25T20:48:27.532Z,101358.19
2023-02-25T20:50:55.785Z,101352.22
2023-02-25T20:53:25.488Z,101355.63
2023-02-25T20:55:55.028Z,101353.94
2023-02-25T20:58:22.683Z,101362.44
2023-02-25T21:00:50.424Z,101362.44
2023-02-25T21:03:18.220Z,101370.94
2023-02-25T21:05:46.268Z,101365.84
2023-02-25T21:08:14.732Z,101368.38
2023-02-25T21:10:44.272Z,101372.59
2023-02-25T21:13:11.903Z,101375.13
2023-02-25T21:15:39.577Z,101376.81
2023-02-25T21:18:07.184Z,101388.75
2023-02-25T21:20:34.904Z,101382.78
2023-02-25T21:23:02.576Z,101382.78
2023-02-25T21:25:32.006Z,101387.03
2023-02-25T21:28:01.923Z,101389.59
2023-02-25T21:30:29.715Z,101393.88
2023-02-25T21:32:57.631Z,101392.16
2023-02-25T21:35:25.244Z,101390.47
2023-02-25T21:37:52.864Z,101392.16
2023-02-25T21:40:21.111Z,101398.16
2023-02-25T21:42:49.861Z,101399.84
2023-02-25T21:45:18.876Z,101405.81
2023-02-25T21:47:46.593Z,101399.00
2023-02-25T21:50:14.264Z,101404.97
2023-02-25T21:52:41.930Z,101400.72
2023-02-25T21:55:10.223Z,101406.69
2023-02-25T21:57:38.395Z,101409.25
2023-02-25T22:00:10.385Z,101403.25
2023-02-25T22:02:39.602Z,101401.56
2023-02-25T22:05:07.769Z,101405.81
2023-02-25T22:07:35.476Z,101410.06
2023-02-25T22:10:03.156Z,101415.16
2023-02-25T22:12:30.863Z,101416.03
2023-02-25T22:14:58.530Z,101421.13
2023-02-25T22:17:26.177Z,101426.25
2023-02-25T22:19:55.233Z,101429.66
2023-02-25T22:22:22.928Z,101423.69
2023-02-25T22:24:50.645Z,101427.09
2023-02-25T22:27:18.251Z,101435.59
2023-02-25T22:29:45.933Z,101436.44
2023-02-25T22:32:13.706Z,101435.59
2023-02-25T22:34:41.601Z,101431.31
2023-02-25T22:37:10.744Z,101432.19
2023-02-25T22:39:38.348Z,101433.00
2023-02-25T22:42:06.101Z,101447.50
2023-02-25T22:44:33.832Z,101448.34
2023-02-25T22:47:01.695Z,101453.44
2023-02-25T22:49:29.364Z,101455.16
2023-02-25T22:51:56.983Z,101456.00
2023-02-25T22:54:25.976Z,101455.16
2023-02-25T22:56:53.688Z,101455.09
2023-02-25T22:59:21.697Z,101456.81
2023-02-25T23:01:49.376Z,101469.56
2023-02-25T23:04:17.067Z,101469.59
2023-02-25T23:06:45.498Z,101474.69
2023-02-25T23:09:13.817Z,101473.81
2023-02-25T23:11:43.933Z,101478.94
2023-02-25T23:14:12.082Z,101480.63
2023-02-25T23:16:41.479Z,101484.94
2023-02-25T23:19:10.889Z,101486.63
2023-02-25T23:21:39.322Z,101483.22
2023-02-25T23:24:08.126Z,101487.50
2023-02-25T23:26:39.059Z,101488.31
2023-02-25T23:29:08.929Z,101487.50
2023-02-25T23:31:37.660Z,101496.06
2023-02-25T23:34:07.760Z,101495.22
2023-02-25T23:36:36.039Z,101492.69
2023-02-25T23:39:05.100Z,101500.38
2023-02-25T23:41:33.087Z,101501.22
2023-02-25T23:44:01.791Z,101504.59
2023-02-25T23:46:32.117Z,101503.78
2023-02-25T23:49:00.917Z,101500.38
2023-02-25T23:51:29.095Z,101506.34
2023-02-25T23:53:57.256Z,101512.28
2023-02-25T23:56:27.265Z,101515.69
2023-02-25T23:58:55.867Z,101512.28
